createdAt,value
2022-12-14T00:02:09.853Z,100566.28
2022-12-14T00:07:14.294Z,100580.03
2022-12-14T00:12:17.428Z,100569.34
2022-12-14T00:17:44.103Z,100561.00
2022-12-14T00:22:52.248Z,100566.41
2022-12-14T00:27:55.439Z,100558.69
2022-12-14T00:32:58.982Z,100549.16
2022-12-14T00:38:03.495Z,100538.09
2022-12-14T00:43:06.655Z,100532.31
2022-12-14T00:48:09.602Z,100521.00
2022-12-14T00:53:14.085Z,100510.81
2022-12-14T00:58:19.858Z,100503.88
2022-12-14T01:03:22.919Z,100498.72
2022-12-14T01:08:35.570Z,100479.44
2022-12-14T01:13:39.855Z,100479.06
2022-12-14T01:18:44.704Z,100476.47
2022-12-14T01:23:52.318Z,100463.72
2022-12-14T01:28:57.725Z,100467.22
2022-12-14T01:34:01.343Z,100475.44
2022-12-14T01:39:09.571Z,100492.03
2022-12-14T01:44:54.160Z,100498.72
2022-12-14T01:50:02.341Z,100486.25
2022-12-14T01:55:11.668Z,100485.34
2022-12-14T02:00:17.155Z,100482.63
2022-12-14T02:05:23.219Z,100466.97
2022-12-14T02:10:30.660Z,100464.41
2022-12-14T02:15:35.379Z,100468.66
2022-12-14T02:20:48.853Z,100469.41
2022-12-14T02:26:26.236Z,100471.06
2022-12-14T02:31:38.929Z,100468.38
2022-12-14T02:36:46.863Z,100470.81
2022-12-14T02:42:00.510Z,100475.69
2022-12-14T02:47:10.810Z,100478.81
2022-12-14T02:52:20.450Z,100463.88
2022-12-14T02:57:26.502Z,100459.28
2022-12-14T03:02:32.073Z,100467.75
2022-12-14T03:07:42.344Z,100462.09
2022-12-14T03:12:50.657Z,100455.94
2022-12-14T03:18:00.212Z,100454.53
2022-12-14T03:23:08.800Z,100449.22
2022-12-14T03:28:17.755Z,100430.72
2022-12-14T03:33:25.257Z,100434.97
2022-12-14T03:38:35.014Z,100424.28
2022-12-14T03:43:49.881Z,100425.09
2022-12-14T03:49:00.320Z,100418.91
2022-12-14T03:54:10.551Z,100403.09
2022-12-14T03:59:19.892Z,100395.28
2022-12-14T04:04:31.573Z,100383.19
2022-12-14T04:09:44.001Z,100369.06
2022-12-14T04:15:10.021Z,100362.63
2022-12-14T04:20:20.986Z,100366.06
2022-12-14T04:25:47.121Z,100363.66
2022-12-14T04:30:52.172Z,100362.75
2022-12-14T04:35:59.495Z,100361.22
2022-12-14T04:41:06.830Z,100358.88
2022-12-14T04:46:13.800Z,100361.59
2022-12-14T04:51:25.993Z,100353.88
2022-12-14T04:56:35.073Z,100354.41
2022-12-14T05:01:49.088Z,100353.25
2022-12-14T05:07:06.100Z,100345.53
2022-12-14T05:12:17.062Z,100334.63
2022-12-14T05:17:20.388Z,100337.19
2022-12-14T05:22:24.868Z,100330.13
2022-12-14T05:27:27.796Z,100337.69
2022-12-14T05:32:30.996Z,100329.97
2022-12-14T05:37:37.391Z,100338.59
2022-12-14T05:42:44.707Z,100332.53
2022-12-14T05:47:49.917Z,100335.50
2022-12-14T05:52:55.661Z,100332.06
2022-12-14T05:57:58.599Z,100327.56
2022-12-14T06:03:01.604Z,100319.19
2022-12-14T06:08:06.545Z,100321.22
2022-12-14T06:13:09.599Z,100331.38
2022-12-14T06:18:12.620Z,100328.91
2022-12-14T06:23:17.072Z,100322.50
2022-12-14T06:28:20.088Z,100326.94
2022-12-14T06:33:23.106Z,100327.94
2022-12-14T06:38:27.624Z,100331.66
2022-12-14T06:43:30.926Z,100323.69
2022-12-14T06:48:34.421Z,100311.09
2022-12-14T06:53:38.860Z,100328.22
2022-12-14T06:58:41.976Z,100319.47
2022-12-14T07:03:49.027Z,100320.19
2022-12-14T07:08:55.993Z,100331.25
2022-12-14T07:14:06.191Z,100331.84
2022-12-14T07:19:10.767Z,100337.22
2022-12-14T07:24:15.137Z,100343.03
2022-12-14T07:29:18.521Z,100341.94
2022-12-14T07:34:22.011Z,100331.59
2022-12-14T07:39:26.634Z,100344.19
2022-12-14T07:44:29.568Z,100341.50
2022-12-14T07:49:32.643Z,100356.00
2022-12-14T07:54:37.016Z,100374.13
2022-12-14T07:59:40.101Z,100380.59
2022-12-14T08:04:43.195Z,100375.66
2022-12-14T08:09:48.756Z,100366.94
2022-12-14T08:14:52.662Z,100365.13
2022-12-14T08:19:56.116Z,100366.78
2022-12-14T08:25:00.359Z,100366.94
2022-12-14T08:30:03.714Z,100359.69
2022-12-14T08:35:07.907Z,100368.88
2022-12-14T08:40:13.102Z,100378.78
2022-12-14T08:45:16.790Z,100380.09
2022-12-14T08:50:20.162Z,100375.28
2022-12-14T08:55:28.423Z,100379.75
2022-12-14T09:00:35.282Z,100380.69
2022-12-14T09:05:38.594Z,100379.47
2022-12-14T09:10:42.984Z,100378.53
2022-12-14T09:15:46.120Z,100375.09
2022-12-14T09:20:49.271Z,100381.16
2022-12-14T09:26:08.663Z,100374.69
2022-12-14T09:31:13.091Z,100374.66
2022-12-14T09:36:18.307Z,100372.66
2022-12-14T09:41:32.291Z,100372.25
2022-12-14T09:46:49.733Z,100378.28
2022-12-14T09:51:55.173Z,100377.22
2022-12-14T09:57:05.369Z,100389.00
2022-12-14T10:02:32.815Z,100394.84
2022-12-14T10:07:43.027Z,100405.09
2022-12-14T10:12:57.123Z,100402.75
2022-12-14T10:18:34.030Z,100391.75
2022-12-14T10:23:37.894Z,100384.56
2022-12-14T10:28:48.448Z,100370.84
2022-12-14T10:33:52.573Z,100371.91
2022-12-14T10:38:59.803Z,100373.28
2022-12-14T10:44:16.016Z,100376.34
2022-12-14T10:49:25.474Z,100382.75
2022-12-14T10:54:33.855Z,100377.38
2022-12-14T10:59:50.791Z,100372.56
2022-12-14T11:05:04.363Z,100374.81
2022-12-14T11:10:17.012Z,100360.59
2022-12-14T11:15:29.517Z,100349.31
2022-12-14T11:20:33.770Z,100357.28
2022-12-14T11:25:40.207Z,100356.72
2022-12-14T11:30:54.671Z,100360.50
2022-12-14T11:35:57.938Z,100352.28
2022-12-14T11:41:10.600Z,100363.66
2022-12-14T11:46:16.243Z,100360.16
2022-12-14T11:51:19.197Z,100362.00
2022-12-14T11:56:22.502Z,100364.81
2022-12-14T12:01:28.148Z,100364.59
2022-12-14T12:06:31.550Z,100363.16
2022-12-14T12:11:37.666Z,100364.72
2022-12-14T12:16:44.716Z,100371.41
2022-12-14T12:21:48.302Z,100369.34
2022-12-14T12:26:53.114Z,100368.94
2022-12-14T12:32:01.788Z,100373.78
2022-12-14T12:37:26.226Z,100371.31
2022-12-14T12:42:40.382Z,100375.88
2022-12-14T12:47:48.787Z,100370.09
2022-12-14T12:53:02.742Z,100378.22
2022-12-14T12:58:10.404Z,100387.50
2022-12-14T13:03:21.560Z,100388.28
2022-12-14T13:08:28.970Z,100394.78
2022-12-14T13:13:35.920Z,100384.53
2022-12-14T13:19:13.124Z,100396.56
2022-12-14T13:24:16.347Z,100391.94
2022-12-14T13:29:36.883Z,100385.72
2022-12-14T13:34:56.448Z,100397.81
2022-12-14T13:40:20.015Z,100387.75
2022-12-14T13:45:30.022Z,100395.75
2022-12-14T13:50:42.362Z,100400.97
2022-12-14T13:55:54.206Z,100395.47
2022-12-14T14:01:00.031Z,100394.56
2022-12-14T14:06:23.981Z,100395.78
2022-12-14T14:11:46.520Z,100399.75
2022-12-14T14:16:55.782Z,100405.34
2022-12-14T14:22:25.127Z,100402.63
2022-12-14T14:27:35.270Z,100416.84
2022-12-14T14:32:41.368Z,100405.38
2022-12-14T14:37:57.022Z,100408.53
2022-12-14T14:43:04.847Z,100414.06
2022-12-14T14:48:22.200Z,100423.91
2022-12-14T14:53:32.489Z,100422.78
2022-12-14T14:58:39.346Z,100428.88
2022-12-14T15:03:48.817Z,100440.19
2022-12-14T15:08:59.193Z,100435.16
2022-12-14T15:14:12.089Z,100448.19
2022-12-14T15:19:23.916Z,100447.94
2022-12-14T15:24:28.666Z,100456.44
2022-12-14T15:29:31.779Z,100463.81
2022-12-14T15:34:36.249Z,100463.56
2022-12-14T15:39:43.694Z,100473.47
2022-12-14T15:44:51.065Z,100486.84
2022-12-14T15:49:59.722Z,100482.19
2022-12-14T15:55:21.916Z,100489.72
2022-12-14T16:00:27.005Z,100491.44
2022-12-14T16:05:30.528Z,100491.25
2022-12-14T16:10:35.328Z,100489.50
2022-12-14T16:15:38.381Z,100484.50
2022-12-14T16:20:44.569Z,100494.19
2022-12-14T16:25:55.406Z,100490.44
2022-12-14T16:31:02.588Z,100492.41
2022-12-14T16:36:09.236Z,100504.91
2022-12-14T16:41:13.947Z,100501.94
2022-12-14T16:46:18.744Z,100497.59
2022-12-14T16:51:58.723Z,100506.97
2022-12-14T16:56:58.740Z,100500.41
2022-12-14T17:02:01.947Z,100510.06
2022-12-14T17:07:08.444Z,100520.28
2022-12-14T17:12:16.061Z,100519.38
2022-12-14T17:17:41.614Z,100510.22
2022-12-14T17:22:49.676Z,100523.69
2022-12-14T17:27:55.104Z,100525.19
2022-12-14T17:32:59.272Z,100526.97
2022-12-14T17:38:02.545Z,100525.50
2022-12-14T17:43:07.307Z,100513.03
2022-12-14T17:48:13.967Z,100518.41
2022-12-14T17:53:19.228Z,100526.31
2022-12-14T17:58:23.920Z,100514.75
2022-12-14T18:03:27.940Z,100520.97
2022-12-14T18:08:31.546Z,100520.47
2022-12-14T18:13:36.584Z,100528.75
2022-12-14T18:18:39.859Z,100536.44
2022-12-14T18:23:43.232Z,100549.44
2022-12-14T18:28:48.555Z,100547.06
2022-12-14T18:33:51.761Z,100537.22
2022-12-14T18:38:54.965Z,100537.97
2022-12-14T18:44:00.590Z,100534.66
2022-12-14T18:49:05.948Z,100542.38
2022-12-14T18:54:10.684Z,100545.06
2022-12-14T18:59:15.192Z,100543.13
2022-12-14T19:04:18.343Z,100549.22
2022-12-14T19:09:21.396Z,100552.00
2022-12-14T19:14:26.051Z,100549.63
2022-12-14T19:19:37.883Z,100543.47
2022-12-14T19:24:49.063Z,100541.19
2022-12-14T19:29:56.512Z,100553.78
2022-12-14T19:34:59.968Z,100546.72
2022-12-14T19:40:06.580Z,100540.91
2022-12-14T19:45:14.608Z,100552.13
2022-12-14T19:50:18.024Z,100555.16
2022-12-14T19:55:21.094Z,100557.78
2022-12-14T20:00:25.575Z,100570.59
2022-12-14T20:05:28.557Z,100568.31
2022-12-14T20:10:31.592Z,100578.91
2022-12-14T20:15:38.962Z,100578.72
2022-12-14T20:20:42.020Z,100575.97
2022-12-14T20:25:45.372Z,100582.75
2022-12-14T20:30:49.776Z,100592.59
2022-12-14T20:35:53.050Z,100589.63
2022-12-14T20:40:56.281Z,100596.84
2022-12-14T20:46:00.813Z,100616.03
2022-12-14T20:51:07.476Z,100625.22
2022-12-14T20:56:10.404Z,100640.59
2022-12-14T21:01:16.177Z,100646.91
2022-12-14T21:06:21.898Z,100654.13
2022-12-14T21:11:42.863Z,100652.63
2022-12-14T21:16:47.834Z,100651.13
2022-12-14T21:21:53.874Z,100639.78
2022-12-14T21:26:57.504Z,100646.44
2022-12-14T21:32:02.243Z,100641.91
2022-12-14T21:37:05.543Z,100642.81
2022-12-14T21:42:15.510Z,100648.06
2022-12-14T21:47:22.708Z,100647.78
2022-12-14T21:52:27.095Z,100652.28
2022-12-14T21:57:49.421Z,100646.41
2022-12-14T22:02:55.124Z,100664.34
2022-12-14T22:07:58.321Z,100673.59
2022-12-14T22:13:01.304Z,100675.25
2022-12-14T22:18:07.780Z,100666.50
2022-12-14T22:23:10.774Z,100675.25
2022-12-14T22:28:13.951Z,100679.41
2022-12-14T22:33:18.320Z,100686.63
2022-12-14T22:38:21.437Z,100682.97
2022-12-14T22:43:29.758Z,100672.38
2022-12-14T22:48:39.186Z,100679.03
2022-12-14T22:53:43.232Z,100688.13
2022-12-14T22:58:58.409Z,100687.19
2022-12-14T23:04:03.711Z,100689.03
2022-12-14T23:09:24.334Z,100699.28
2022-12-14T23:14:45.049Z,100699.75
2022-12-14T23:20:06.955Z,100711.53
2022-12-14T23:25:27.664Z,100704.47
2022-12-14T23:30:48.237Z,100708.38
2022-12-14T23:36:10.325Z,100718.22
2022-12-14T23:41:30.761Z,100716.41
2022-12-14T23:46:51.808Z,100710.69
2022-12-14T23:52:13.627Z,100715.69
2022-12-14T23:57:34.312Z,100707.56
